Time;durP1;ratioP1;P1;durP2;ratioP2;P2;SDS_P1;SDS_P2;PMS_P1;PMS_P2;Temp;Humidity;BMP_temperature;BMP_pressure;BME280_temperature;BME280_humidity;BME280_pressure;Samples;Min_cycle;Max_cycle;Signal;HPM_P1;HPM_P2
2024/01/23 00:00:08;;;;;;;18.10;4.15;;;7.00;99.90;;;;;;7375207;19;20051;-75
2024/01/23 00:02:35;;;;;;;13.98;4.20;;;7.00;99.90;;;;;;7369732;19;20074;-76
2024/01/23 00:05:04;;;;;;;18.73;4.10;;;7.00;99.90;;;;;;7371629;19;20022;-76
2024/01/23 00:07:30;;;;;;;23.27;4.57;;;7.10;99.90;;;;;;7372612;19;20026;-64
2024/01/23 00:09:57;;;;;;;17.85;3.78;;;7.10;99.90;;;;;;7372207;19;20809;-64
2024/01/23 00:12:25;;;;;;;21.40;3.13;;;7.10;99.90;;;;;;7371682;19;20026;-65
2024/01/23 00:14:52;;;;;;;15.48;3.65;;;7.10;99.90;;;;;;7368817;19;20014;-64
2024/01/23 00:17:19;;;;;;;16.52;3.88;;;7.10;99.90;;;;;;7372913;19;20045;-76
2024/01/23 00:19:46;;;;;;;16.70;4.10;;;7.10;99.90;;;;;;7371900;19;20023;-75
2024/01/23 00:22:13;;;;;;;25.75;4.00;;;7.10;99.90;;;;;;7371773;19;20070;-76
2024/01/23 00:24:40;;;;;;;16.52;4.03;;;7.00;99.90;;;;;;7371169;19;20073;-65
2024/01/23 00:27:09;;;;;;;13.35;3.38;;;7.00;99.90;;;;;;7372414;19;20507;-64
2024/01/23 00:29:36;;;;;;;12.52;3.15;;;7.00;99.90;;;;;;7372619;19;20011;-64
2024/01/23 00:32:03;;;;;;;20.38;4.20;;;7.00;99.90;;;;;;7369988;19;20398;-76
2024/01/23 00:34:30;;;;;;;16.58;3.53;;;6.90;99.90;;;;;;7372398;19;20483;-76
2024/01/23 00:36:58;;;;;;;17.35;3.70;;;6.90;99.90;;;;;;7369400;19;20097;-64
2024/01/23 00:39:25;;;;;;;24.17;3.50;;;6.90;99.90;;;;;;7370260;19;20022;-64
2024/01/23 00:41:52;;;;;;;18.58;4.22;;;6.90;99.90;;;;;;7369805;19;20729;-77
2024/01/23 00:44:19;;;;;;;14.60;3.92;;;6.90;99.90;;;;;;7369736;19;20642;-65
2024/01/23 00:46:46;;;;;;;18.33;3.53;;;6.90;99.90;;;;;;7368714;19;20014;-65
2024/01/23 00:49:12;;;;;;;22.60;4.05;;;6.90;99.90;;;;;;7372108;19;20015;-76
2024/01/23 00:51:38;;;;;;;19.38;3.35;;;6.90;99.90;;;;;;7371751;19;20555;-64
2024/01/23 00:54:04;;;;;;;11.60;2.65;;;6.90;99.90;;;;;;7368519;19;20018;-64
2024/01/23 00:56:31;;;;;;;15.65;3.25;;;6.90;99.90;;;;;;7367601;19;20723;-64
2024/01/23 00:58:57;;;;;;;18.08;3.38;;;6.90;99.90;;;;;;7372603;19;20023;-76
2024/01/23 01:01:23;;;;;;;19.00;3.60;;;7.00;99.90;;;;;;7370804;19;20126;-76
2024/01/23 01:03:49;;;;;;;16.33;3.75;;;6.90;99.90;;;;;;7366717;19;20396;-77
2024/01/23 01:06:18;;;;;;;13.88;2.97;;;6.80;99.90;;;;;;7369375;19;20793;-76
2024/01/23 01:08:44;;;;;;;18.27;3.13;;;6.80;99.90;;;;;;7371407;19;20022;-65
2024/01/23 01:11:11;;;;;;;17.95;3.70;;;6.70;99.90;;;;;;7368685;19;20060;-64
2024/01/23 01:13:38;;;;;;;21.30;4.65;;;6.70;99.90;;;;;;7367517;19;20022;-64
2024/01/23 01:16:04;;;;;;;15.07;3.13;;;6.70;99.90;;;;;;7355851;19;20042;-64
2024/01/23 01:18:31;;;;;;;14.90;3.50;;;6.70;99.90;;;;;;7371020;19;20391;-64
2024/01/23 01:20:57;;;;;;;16.15;3.83;;;6.70;99.90;;;;;;7366341;19;20021;-65
2024/01/23 01:23:26;;;;;;;18.23;3.90;;;6.70;99.90;;;;;;7369558;19;20019;-64
2024/01/23 01:25:52;;;;;;;20.17;3.33;;;6.70;99.90;;;;;;7368888;19;20022;-65
2024/01/23 01:28:19;;;;;;;19.27;3.75;;;6.70;99.90;;;;;;7370959;19;20089;-65
2024/01/23 01:30:45;;;;;;;21.30;4.38;;;6.70;99.90;;;;;;7368499;19;20018;-65
2024/01/23 01:33:12;;;;;;;12.98;3.40;;;6.70;99.90;;;;;;7369010;19;20026;-64
2024/01/23 01:35:38;;;;;;;13.43;3.45;;;6.70;99.90;;;;;;7363610;19;20078;-76
2024/01/23 01:38:04;;;;;;;19.45;3.83;;;6.70;99.90;;;;;;7363900;19;20018;-76
2024/01/23 01:40:30;;;;;;;23.13;3.83;;;6.70;99.90;;;;;;7369113;19;20035;-64
2024/01/23 01:42:56;;;;;;;20.73;3.97;;;6.70;99.90;;;;;;7369200;19;20543;-77
2024/01/23 01:45:23;;;;;;;23.70;5.07;;;6.70;99.90;;;;;;7372395;19;20030;-65
2024/01/23 01:47:50;;;;;;;18.90;3.30;;;6.70;99.90;;;;;;7374663;19;20971;-64
2024/01/23 01:50:17;;;;;;;18.08;3.67;;;6.70;99.90;;;;;;7377415;19;20010;-64
2024/01/23 01:52:43;;;;;;;19.58;4.07;;;6.70;99.90;;;;;;7373541;19;20021;-64
2024/01/23 01:55:10;;;;;;;26.73;4.57;;;6.60;99.90;;;;;;7374949;19;20111;-64
2024/01/23 01:57:38;;;;;;;17.65;4.30;;;6.60;99.90;;;;;;7373868;19;20019;-64
2024/01/23 02:00:08;;;;;;;17.48;4.45;;;6.60;99.90;;;;;;7374833;19;20022;-64
2024/01/23 02:02:41;;;;;;;19.45;4.07;;;6.60;99.90;;;;;;7374848;19;20046;-64
2024/01/23 02:05:08;;;;;;;20.40;3.80;;;6.50;99.90;;;;;;7373708;19;20010;-64
2024/01/23 02:07:34;;;;;;;18.88;4.43;;;6.50;99.90;;;;;;7374801;19;20014;-76
2024/01/23 02:10:01;;;;;;;15.95;4.78;;;6.50;99.90;;;;;;7376859;19;20074;-76
2024/01/23 02:12:27;;;;;;;16.95;3.58;;;6.50;99.90;;;;;;7370088;19;21947;-76
2024/01/23 02:14:53;;;;;;;17.13;3.40;;;6.50;99.90;;;;;;7375488;19;20550;-76
2024/01/23 02:17:19;;;;;;;18.98;3.58;;;6.40;99.90;;;;;;7375660;19;20606;-77
2024/01/23 02:19:45;;;;;;;18.70;3.53;;;6.40;99.90;;;;;;7377245;19;20592;-76
2024/01/23 02:22:11;;;;;;;21.15;3.42;;;6.50;99.90;;;;;;7378953;19;20022;-77
2024/01/23 02:24:38;;;;;;;25.50;5.40;;;6.50;99.90;;;;;;7372619;19;20022;-76
2024/01/23 02:27:04;;;;;;;15.27;3.58;;;6.50;99.90;;;;;;7372485;19;20022;-76
2024/01/23 02:29:30;;;;;;;18.38;3.45;;;6.50;99.90;;;;;;7375071;19;20018;-76
2024/01/23 02:31:56;;;;;;;15.52;3.75;;;6.40;99.90;;;;;;7371151;19;20658;-76
2024/01/23 02:34:24;;;;;;;22.98;4.47;;;6.30;99.90;;;;;;7372502;19;20058;-76
2024/01/23 02:36:50;;;;;;;16.38;3.33;;;6.30;99.90;;;;;;7372989;19;20079;-76
2024/01/23 02:39:16;;;;;;;18.77;3.95;;;6.30;99.90;;;;;;7374133;19;20514;-76
2024/01/23 02:41:43;;;;;;;16.23;3.47;;;6.30;99.90;;;;;;7374595;19;20018;-76
2024/01/23 02:44:09;;;;;;;16.40;3.35;;;6.20;99.90;;;;;;7356218;19;20030;-76
2024/01/23 02:46:36;;;;;;;20.08;3.75;;;6.20;99.90;;;;;;7366121;19;20082;-77
2024/01/23 02:49:03;;;;;;;16.05;3.35;;;6.20;99.90;;;;;;7373934;19;20505;-77
2024/01/23 02:51:33;;;;;;;20.38;4.95;;;6.10;99.90;;;;;;7376239;19;20018;-77
2024/01/23 02:54:00;;;;;;;19.48;4.20;;;6.10;99.90;;;;;;7371245;19;20073;-77
2024/01/23 02:56:27;;;;;;;16.45;3.95;;;6.10;99.90;;;;;;7373412;19;20102;-76
2024/01/23 02:58:54;;;;;;;11.40;3.38;;;6.10;99.90;;;;;;7375338;19;20692;-77
2024/01/23 03:01:21;;;;;;;18.88;4.03;;;6.10;99.90;;;;;;7374229;19;20023;-77
2024/01/23 03:03:48;;;;;;;21.50;4.35;;;6.10;99.90;;;;;;7371982;19;20018;-76
2024/01/23 03:06:15;;;;;;;19.85;3.63;;;6.10;99.90;;;;;;7373649;19;20475;-65
2024/01/23 03:08:42;;;;;;;20.25;4.18;;;6.20;99.90;;;;;;7373307;19;20024;-65
2024/01/23 03:11:09;;;;;;;19.27;4.05;;;6.20;99.90;;;;;;7373039;19;20032;-64
2024/01/23 03:13:36;;;;;;;20.77;4.75;;;6.30;99.90;;;;;;7369620;19;20060;-64
2024/01/23 03:16:04;;;;;;;18.73;3.67;;;6.30;99.90;;;;;;7370264;19;20689;-64
2024/01/23 03:18:31;;;;;;;16.45;3.80;;;6.30;99.90;;;;;;7374591;19;20539;-64
2024/01/23 03:20:57;;;;;;;17.25;3.50;;;6.40;99.90;;;;;;7367183;19;20025;-64
2024/01/23 03:23:23;;;;;;;24.25;4.38;;;6.40;99.90;;;;;;7375244;19;20795;-64
2024/01/23 03:25:49;;;;;;;24.10;4.50;;;6.40;99.90;;;;;;7375534;19;20105;-64
2024/01/23 03:28:15;;;;;;;19.58;4.10;;;6.40;99.90;;;;;;7370299;19;20028;-76
2024/01/23 03:30:41;;;;;;;20.35;5.60;;;6.40;99.90;;;;;;7372016;19;20029;-75
2024/01/23 03:33:08;;;;;;;13.32;3.65;;;6.40;99.90;;;;;;7372401;19;20056;-75
2024/01/23 03:35:34;;;;;;;17.67;4.40;;;6.40;99.90;;;;;;7374462;19;20014;-64
2024/01/23 03:38:00;;;;;;;21.33;4.30;;;6.40;99.90;;;;;;7369055;19;20499;-64
2024/01/23 03:40:26;;;;;;;17.63;3.92;;;6.40;99.90;;;;;;7374800;19;20018;-75
2024/01/23 03:42:52;;;;;;;23.27;4.57;;;6.50;99.90;;;;;;7371614;19;20055;-76
2024/01/23 03:45:19;;;;;;;19.75;3.92;;;6.60;99.90;;;;;;7372931;19;20102;-76
2024/01/23 03:47:45;;;;;;;17.58;3.75;;;6.60;99.90;;;;;;7374022;19;20494;-75
2024/01/23 03:50:11;;;;;;;23.08;5.00;;;6.70;99.90;;;;;;7369763;19;20653;-64
2024/01/23 03:52:38;;;;;;;22.50;5.57;;;6.70;99.90;;;;;;7372199;19;20513;-76
2024/01/23 03:55:04;;;;;;;18.65;4.50;;;6.70;99.90;;;;;;7370385;19;20415;-76
2024/01/23 03:57:30;;;;;;;21.35;4.55;;;6.70;99.90;;;;;;7374536;19;20471;-76
2024/01/23 03:59:56;;;;;;;23.55;4.90;;;6.70;99.90;;;;;;7370327;19;20083;-76
2024/01/23 04:02:25;;;;;;;17.38;4.40;;;6.70;99.90;;;;;;7371551;19;20018;-75
2024/01/23 04:04:54;;;;;;;25.75;4.82;;;6.70;99.90;;;;;;7372037;19;20102;-76
2024/01/23 04:07:20;;;;;;;21.65;4.53;;;6.80;99.90;;;;;;7366364;19;20026;-75
2024/01/23 04:09:46;;;;;;;20.73;3.63;;;6.90;99.90;;;;;;7371733;19;20038;-75
2024/01/23 04:12:13;;;;;;;20.25;4.03;;;6.80;99.90;;;;;;7366699;19;20114;-75
2024/01/23 04:14:40;;;;;;;18.75;4.32;;;6.90;99.90;;;;;;7371595;19;20018;-76
2024/01/23 04:17:07;;;;;;;22.67;4.72;;;6.90;99.90;;;;;;7365339;19;20409;-64
2024/01/23 04:19:36;;;;;;;20.75;4.28;;;7.00;99.90;;;;;;7365612;19;20594;-64
2024/01/23 04:22:04;;;;;;;19.75;4.30;;;6.90;99.90;;;;;;7367642;19;20086;-64
2024/01/23 04:24:33;;;;;;;22.00;4.90;;;7.00;99.90;;;;;;7366897;19;20094;-64
2024/01/23 04:27:00;;;;;;;21.80;5.43;;;7.00;99.90;;;;;;7365016;19;20018;-64
2024/01/23 04:29:27;;;;;;;20.90;4.35;;;7.00;99.90;;;;;;7367583;19;20015;-64
2024/01/23 04:31:53;;;;;;;20.50;4.22;;;7.00;99.90;;;;;;7368724;19;20022;-76
2024/01/23 04:34:19;;;;;;;22.70;4.68;;;6.90;99.90;;;;;;7371292;19;23064;-75
2024/01/23 04:36:46;;;;;;;21.02;4.60;;;7.00;99.90;;;;;;7363840;19;20022;-75
2024/01/23 04:39:12;;;;;;;24.65;5.78;;;7.00;99.90;;;;;;7364719;19;20018;-75
2024/01/23 04:41:38;;;;;;;25.75;5.40;;;7.00;99.90;;;;;;7365687;19;20011;-64
2024/01/23 04:44:04;;;;;;;20.35;4.40;;;7.10;99.90;;;;;;7367170;19;20011;-76
2024/01/23 04:46:31;;;;;;;24.23;5.25;;;7.00;99.90;;;;;;7369279;19;20018;-64
2024/01/23 04:48:57;;;;;;;22.35;5.25;;;7.00;99.90;;;;;;7366607;19;20014;-75
2024/01/23 04:51:24;;;;;;;21.17;4.13;;;7.00;99.90;;;;;;7364528;19;20576;-76
2024/01/23 04:53:52;;;;;;;28.85;5.30;;;7.00;99.90;;;;;;7364508;19;20578;-76
2024/01/23 04:56:24;;;;;;;17.40;4.03;;;6.90;99.90;;;;;;7367964;19;20019;-76
2024/01/23 04:58:50;;;;;;;25.73;5.38;;;6.90;99.90;;;;;;7366696;19;20014;-64
2024/01/23 05:01:17;;;;;;;24.45;4.28;;;6.90;99.90;;;;;;7359496;19;22199;-77
2024/01/23 05:03:44;;;;;;;22.85;4.60;;;6.90;99.90;;;;;;7365447;19;20025;-76
2024/01/23 05:06:10;;;;;;;23.75;5.03;;;6.80;99.90;;;;;;7359446;19;20022;-64
2024/01/23 05:08:36;;;;;;;24.48;4.72;;;6.80;99.90;;;;;;7367784;19;20022;-64
2024/01/23 05:11:03;;;;;;;23.58;6.45;;;6.80;99.90;;;;;;7364455;19;20027;-76
2024/01/23 05:13:29;;;;;;;25.08;4.63;;;6.90;99.90;;;;;;7365356;19;20026;-64
2024/01/23 05:16:15;;;;;;;27.67;5.50;;;6.90;99.90;;;;;;7365023;19;20014;-76
2024/01/23 05:18:42;;;;;;;23.52;4.63;;;7.00;99.90;;;;;;7366984;19;20026;-64
2024/01/23 05:21:08;;;;;;;21.48;5.53;;;7.00;99.90;;;;;;7374650;19;20026;-64
2024/01/23 05:23:35;;;;;;;23.20;5.13;;;7.00;99.90;;;;;;7370510;19;20811;-76
2024/01/23 05:26:02;;;;;;;24.58;4.45;;;7.00;99.90;;;;;;7374004;19;20025;-64
2024/01/23 05:28:28;;;;;;;30.33;5.60;;;7.00;99.90;;;;;;7373629;19;20022;-64
2024/01/23 05:30:55;;;;;;;25.17;6.28;;;7.00;99.90;;;;;;7373393;19;21032;-64
2024/01/23 05:33:22;;;;;;;22.42;5.07;;;7.00;99.90;;;;;;7372433;19;20026;-76
2024/01/23 05:35:49;;;;;;;32.38;6.50;;;7.00;99.90;;;;;;7376084;19;20011;-63
2024/01/23 05:38:16;;;;;;;28.15;6.07;;;7.00;99.90;;;;;;7372517;19;20120;-63
2024/01/23 05:40:43;;;;;;;29.20;5.28;;;7.00;99.90;;;;;;7371936;19;20019;-63
2024/01/23 05:43:10;;;;;;;25.00;6.03;;;7.10;99.90;;;;;;7371503;19;20226;-63
2024/01/23 05:45:37;;;;;;;27.73;5.80;;;7.10;99.90;;;;;;7373133;19;20800;-63
2024/01/23 05:48:04;;;;;;;23.30;4.85;;;7.10;99.90;;;;;;7377053;19;20074;-63
2024/01/23 05:50:31;;;;;;;26.45;6.13;;;7.20;99.90;;;;;;7370934;19;20101;-63
2024/01/23 05:52:58;;;;;;;30.80;5.97;;;7.10;99.90;;;;;;7371669;19;20074;-63
2024/01/23 05:55:25;;;;;;;33.85;5.80;;;7.20;99.90;;;;;;7374003;19;20025;-72
2024/01/23 05:57:52;;;;;;;33.72;6.07;;;7.20;99.90;;;;;;7378877;19;20039;-73
2024/01/23 06:00:19;;;;;;;32.00;5.18;;;7.20;99.90;;;;;;7373579;19;20034;-73
2024/01/23 06:02:46;;;;;;;25.15;5.90;;;7.20;99.90;;;;;;7377388;19;20078;-74
2024/01/23 06:05:14;;;;;;;23.23;5.53;;;7.30;99.90;;;;;;7372886;19;20022;-73
2024/01/23 06:07:43;;;;;;;35.40;6.28;;;7.30;99.90;;;;;;7379872;19;20014;-74
2024/01/23 06:10:10;;;;;;;34.67;6.88;;;7.30;99.90;;;;;;7374988;19;20717;-73
2024/01/23 06:12:38;;;;;;;28.50;6.20;;;7.30;99.90;;;;;;7373087;19;20060;-63
2024/01/23 06:15:05;;;;;;;34.20;6.15;;;7.30;99.90;;;;;;7372263;19;20106;-64
2024/01/23 06:17:32;;;;;;;19.95;5.63;;;7.40;99.90;;;;;;7371318;19;20098;-63
2024/01/23 06:20:01;;;;;;;31.30;6.95;;;7.40;99.90;;;;;;7368377;19;20082;-63
2024/01/23 06:22:28;;;;;;;31.23;6.75;;;7.40;99.90;;;;;;7371957;19;20432;-74
2024/01/23 06:25:14;;;;;;;32.65;6.80;;;7.30;99.90;;;;;;7373306;19;20015;-73
2024/01/23 06:27:43;;;;;;;28.83;5.97;;;7.30;99.90;;;;;;7374057;19;20018;-63
2024/01/23 06:30:13;;;;;;;26.42;5.43;;;7.30;99.90;;;;;;7368596;19;20684;-63
2024/01/23 06:32:41;;;;;;;29.52;5.75;;;7.30;99.90;;;;;;7369521;19;20482;-63
2024/01/23 06:35:09;;;;;;;34.13;7.07;;;7.30;99.90;;;;;;7372579;19;20129;-63
2024/01/23 06:37:35;;;;;;;27.65;6.72;;;7.30;99.90;;;;;;7373187;19;20375;-63
2024/01/23 06:40:04;;;;;;;29.02;6.30;;;7.30;99.90;;;;;;7371189;19;20056;-63
2024/01/23 06:42:32;;;;;;;31.75;7.30;;;7.20;99.90;;;;;;7373236;19;20082;-63
2024/01/23 06:44:59;;;;;;;32.95;7.47;;;7.20;99.90;;;;;;7370431;19;20026;-63
2024/01/23 06:47:26;;;;;;;29.85;5.53;;;7.20;99.90;;;;;;7371571;19;20078;-63
2024/01/23 06:49:53;;;;;;;27.40;5.85;;;7.20;99.90;;;;;;7368785;19;20034;-63
2024/01/23 06:52:20;;;;;;;25.92;6.20;;;7.20;99.90;;;;;;7369885;19;20018;-63
2024/01/23 06:54:47;;;;;;;22.52;6.43;;;7.10;99.90;;;;;;7367145;19;20122;-63
2024/01/23 06:57:13;;;;;;;25.25;6.45;;;7.10;99.90;;;;;;7364607;19;20046;-63
2024/01/23 06:59:40;;;;;;;21.67;5.00;;;7.00;99.90;;;;;;7370644;19;20066;-72
2024/01/23 07:02:06;;;;;;;25.08;5.22;;;7.00;99.90;;;;;;7362375;19;20022;-72
2024/01/23 07:04:32;;;;;;;34.72;6.85;;;7.00;99.90;;;;;;7367520;19;20019;-72
2024/01/23 07:06:58;;;;;;;29.70;6.28;;;6.90;99.90;;;;;;7366003;19;20041;-73
2024/01/23 07:09:25;;;;;;;24.40;5.10;;;6.90;99.90;;;;;;7369598;19;20034;-73
2024/01/23 07:11:53;;;;;;;32.50;6.85;;;6.90;99.90;;;;;;7371960;19;20042;-72
2024/01/23 07:14:19;;;;;;;30.08;6.13;;;6.90;99.90;;;;;;7370178;19;20034;-73
2024/01/23 07:16:45;;;;;;;34.25;6.00;;;6.80;99.90;;;;;;7373551;19;20030;-73
2024/01/23 07:19:12;;;;;;;29.35;7.20;;;6.80;99.90;;;;;;7362327;19;20099;-72
2024/01/23 07:21:40;;;;;;;33.17;6.75;;;6.80;99.90;;;;;;7367909;19;20031;-73
2024/01/23 07:24:07;;;;;;;29.35;5.88;;;6.80;99.90;;;;;;7368563;19;20022;-72
2024/01/23 07:26:33;;;;;;;34.95;6.40;;;6.80;99.90;;;;;;7371377;19;20023;-72
2024/01/23 07:29:02;;;;;;;36.70;6.63;;;6.80;99.90;;;;;;7368583;19;20821;-72
2024/01/23 07:31:29;;;;;;;36.45;6.95;;;6.80;99.90;;;;;;7365562;19;20019;-72
2024/01/23 07:33:56;;;;;;;29.55;6.22;;;6.80;99.90;;;;;;7369822;19;20022;-70
2024/01/23 07:36:22;;;;;;;33.88;6.32;;;6.80;99.90;;;;;;7372478;19;20110;-72
2024/01/23 07:38:48;;;;;;;27.98;5.93;;;6.70;99.90;;;;;;7368996;19;20030;-63
2024/01/23 07:41:17;;;;;;;26.05;5.50;;;6.70;99.90;;;;;;7366128;19;20058;-63
2024/01/23 07:43:44;;;;;;;29.17;6.15;;;6.70;99.90;;;;;;7370351;19;20018;-72
2024/01/23 07:46:10;;;;;;;35.63;6.97;;;6.70;99.90;;;;;;7371098;19;20022;-72
2024/01/23 07:48:37;;;;;;;27.13;5.57;;;6.60;99.90;;;;;;7370705;19;20081;-73
2024/01/23 07:51:04;;;;;;;37.90;7.07;;;6.60;99.90;;;;;;7367736;19;20022;-73
2024/01/23 07:53:32;;;;;;;28.13;6.07;;;6.50;99.90;;;;;;7368895;19;20404;-63
2024/01/23 07:56:03;;;;;;;30.70;7.73;;;6.50;99.90;;;;;;7370390;19;20517;-63
2024/01/23 07:58:30;;;;;;;30.08;5.50;;;6.40;99.90;;;;;;7367377;19;20106;-73
2024/01/23 08:00:58;;;;;;;24.15;5.72;;;6.30;99.90;;;;;;7363723;19;20101;-73
2024/01/23 08:03:25;;;;;;;36.53;6.30;;;6.30;99.90;;;;;;7364662;19;20915;-72
2024/01/23 08:05:52;;;;;;;24.00;5.18;;;6.20;99.90;;;;;;7368198;19;20022;-73
2024/01/23 08:08:20;;;;;;;32.10;6.55;;;6.20;99.90;;;;;;7368977;19;20121;-74
2024/01/23 08:10:51;;;;;;;29.90;5.85;;;6.20;99.90;;;;;;7373755;19;20014;-73
2024/01/23 08:13:22;;;;;;;27.63;5.32;;;6.10;99.90;;;;;;7367138;19;20014;-63
2024/01/23 08:15:48;;;;;;;26.25;5.28;;;6.10;99.90;;;;;;7370545;19;20495;-62
2024/01/23 08:18:17;;;;;;;36.00;7.20;;;6.20;99.90;;;;;;7370955;19;20035;-64
2024/01/23 08:20:44;;;;;;;32.55;6.40;;;6.20;99.90;;;;;;7369949;19;20479;-64
2024/01/23 08:23:11;;;;;;;30.92;5.97;;;6.20;99.90;;;;;;7367610;19;20011;-64
2024/01/23 08:25:38;;;;;;;29.67;6.20;;;6.30;99.90;;;;;;7368490;19;20518;-64
2024/01/23 08:28:06;;;;;;;29.35;6.18;;;6.30;99.90;;;;;;7367383;19;20021;-65
2024/01/23 08:30:33;;;;;;;35.42;6.43;;;6.30;99.90;;;;;;7370965;19;20026;-64
2024/01/23 08:33:00;;;;;;;23.67;5.35;;;6.30;99.90;;;;;;7369070;19;20098;-63
2024/01/23 08:35:27;;;;;;;26.23;5.88;;;6.30;99.90;;;;;;7369482;19;20011;-64
2024/01/23 08:37:54;;;;;;;37.45;7.78;;;6.40;99.90;;;;;;7366388;19;20022;-64
2024/01/23 08:40:21;;;;;;;25.60;6.20;;;6.40;99.90;;;;;;7368963;19;20051;-65
2024/01/23 08:42:48;;;;;;;31.58;5.97;;;6.40;99.90;;;;;;7368066;19;20022;-64
2024/01/23 08:45:15;;;;;;;30.75;6.93;;;6.50;99.90;;;;;;7365649;19;20094;-64
2024/01/23 08:47:42;;;;;;;27.80;7.32;;;6.60;99.90;;;;;;7366897;19;20448;-64
2024/01/23 08:50:09;;;;;;;32.08;6.80;;;6.70;99.90;;;;;;7367793;19;20519;-65
2024/01/23 08:52:36;;;;;;;28.38;5.95;;;7.00;99.90;;;;;;7367342;19;20566;-64
2024/01/23 08:55:05;;;;;;;29.75;7.43;;;7.20;99.90;;;;;;7374736;19;20562;-65
2024/01/23 08:57:32;;;;;;;29.35;5.38;;;7.30;99.90;;;;;;7372354;19;20031;-64
2024/01/23 08:59:59;;;;;;;26.23;6.00;;;7.50;99.90;;;;;;7374546;19;20550;-65
2024/01/23 09:02:26;;;;;;;26.40;6.05;;;7.60;99.90;;;;;;7376215;19;20015;-64
2024/01/23 09:04:52;;;;;;;28.40;6.05;;;7.60;99.90;;;;;;7371514;19;20026;-64
2024/01/23 09:07:18;;;;;;;27.63;6.38;;;7.60;99.90;;;;;;7373485;19;20875;-63
2024/01/23 09:09:45;;;;;;;33.13;7.53;;;7.70;99.90;;;;;;7374232;19;20029;-65
2024/01/23 09:12:11;;;;;;;29.58;6.18;;;7.70;99.90;;;;;;7375481;19;20026;-64
2024/01/23 09:14:38;;;;;;;20.00;5.32;;;7.80;99.90;;;;;;7376353;19;20736;-64
2024/01/23 09:17:05;;;;;;;24.65;7.00;;;8.10;99.90;;;;;;7373102;19;20022;-64
2024/01/23 09:19:31;;;;;;;28.88;5.80;;;8.00;99.90;;;;;;7375503;19;20064;-64
2024/01/23 09:21:57;;;;;;;28.80;7.13;;;8.30;99.90;;;;;;7378205;19;20360;-65
2024/01/23 09:24:24;;;;;;;33.42;7.85;;;8.30;99.90;;;;;;7375878;19;20046;-65
2024/01/23 09:26:50;;;;;;;24.48;5.63;;;8.30;99.90;;;;;;7375455;19;20037;-73
2024/01/23 09:29:16;;;;;;;35.20;6.97;;;8.20;99.90;;;;;;7375313;19;20758;-73
2024/01/23 09:31:44;;;;;;;28.38;7.15;;;8.20;99.90;;;;;;7377405;19;20011;-65
2024/01/23 09:34:10;;;;;;;27.77;6.05;;;8.20;99.90;;;;;;7371392;19;20025;-65
2024/01/23 09:36:37;;;;;;;24.40;5.70;;;8.20;99.90;;;;;;7374508;19;20038;-64
2024/01/23 09:39:04;;;;;;;29.20;6.28;;;8.50;99.90;;;;;;7371660;19;20074;-73
2024/01/23 09:41:33;;;;;;;29.02;6.05;;;8.50;99.90;;;;;;7379011;19;20026;-73
2024/01/23 09:44:01;;;;;;;28.88;6.70;;;8.50;99.90;;;;;;7377479;19;20031;-73
2024/01/23 09:46:28;;;;;;;27.65;6.00;;;9.20;99.90;;;;;;7375762;19;20106;-74
2024/01/23 09:48:55;;;;;;;25.40;5.72;;;9.50;99.90;;;;;;7377854;19;20014;-74
2024/01/23 09:51:23;;;;;;;31.92;7.13;;;9.70;99.90;;;;;;7373515;19;20102;-64
2024/01/23 09:53:49;;;;;;;25.85;6.47;;;10.00;99.90;;;;;;7370312;19;20018;-65
2024/01/23 09:56:16;;;;;;;36.15;7.70;;;10.00;99.90;;;;;;7373425;19;20021;-65
2024/01/23 09:58:43;;;;;;;37.30;6.50;;;10.10;99.90;;;;;;7370770;19;20615;-65
2024/01/23 10:01:11;;;;;;;26.30;6.22;;;10.80;99.90;;;;;;7372389;19;20471;-65
2024/01/23 10:03:37;;;;;;;28.42;6.95;;;10.70;99.90;;;;;;7373351;19;20789;-65
2024/01/23 10:06:04;;;;;;;31.52;6.78;;;10.40;99.90;;;;;;7372438;19;20017;-64
2024/01/23 10:08:30;;;;;;;31.23;7.15;;;10.30;99.90;;;;;;7373744;19;20025;-65
2024/01/23 10:11:00;;;;;;;25.23;7.43;;;10.50;99.90;;;;;;7372738;19;20015;-64
2024/01/23 10:13:29;;;;;;;27.00;6.10;;;10.50;99.90;;;;;;7373775;19;20126;-64
2024/01/23 10:15:56;;;;;;;28.85;6.47;;;10.80;99.90;;;;;;7371059;19;20030;-64
2024/01/23 10:18:24;;;;;;;35.67;6.82;;;10.90;99.90;;;;;;7367615;19;20029;-73
2024/01/23 10:20:51;;;;;;;26.90;6.82;;;10.40;99.90;;;;;;7370307;19;20963;-65
2024/01/23 10:23:17;;;;;;;32.60;6.80;;;10.50;99.90;;;;;;7370905;19;20022;-65
2024/01/23 10:25:44;;;;;;;30.88;7.03;;;10.30;99.90;;;;;;7371882;19;20038;-74
2024/01/23 10:28:11;;;;;;;34.35;6.45;;;9.90;99.90;;;;;;7371005;19;20022;-73
2024/01/23 10:30:40;;;;;;;29.67;6.38;;;9.80;99.90;;;;;;7373658;19;20033;-73
2024/01/23 10:33:09;;;;;;;22.95;5.75;;;9.70;99.90;;;;;;7370460;19;20023;-73
2024/01/23 10:35:36;;;;;;;28.20;5.88;;;9.50;99.90;;;;;;7369595;19;20018;-73
2024/01/23 10:38:05;;;;;;;28.92;6.25;;;9.30;99.90;;;;;;7370471;19;20022;-73
2024/01/23 10:40:32;;;;;;;27.48;6.68;;;9.40;99.90;;;;;;7370417;19;20022;-71
2024/01/23 10:42:59;;;;;;;30.88;6.50;;;9.20;99.90;;;;;;7370885;19;20018;-70
2024/01/23 10:45:25;;;;;;;29.40;6.70;;;8.90;99.90;;;;;;7370596;19;20026;-71
2024/01/23 10:47:56;;;;;;;28.15;6.60;;;9.30;99.90;;;;;;7369362;19;20518;-70
2024/01/23 10:50:23;;;;;;;31.77;6.30;;;9.90;99.90;;;;;;7370854;19;20030;-64
2024/01/23 10:52:50;;;;;;;24.23;5.68;;;10.30;99.90;;;;;;7370002;19;20018;-64
2024/01/23 10:55:18;;;;;;;27.10;5.93;;;10.20;99.90;;;;;;7373995;19;20019;-64
2024/01/23 10:57:46;;;;;;;29.60;6.93;;;10.10;99.90;;;;;;7369192;19;20022;-64
2024/01/23 11:00:19;;;;;;;30.48;7.20;;;10.10;99.90;;;;;;7372592;19;20434;-71
2024/01/23 11:02:56;;;;;;;;;;;10.30;99.90;;;;;;7372394;19;20022;-73
2024/01/23 11:05:46;;;;;;;25.13;6.53;;;10.60;99.90;;;;;;7373360;19;20348;-72
2024/01/23 11:08:25;;;;;;;32.05;6.18;;;11.20;99.90;;;;;;7369416;19;20038;-71
2024/01/23 11:11:05;;;;;;;27.73;5.30;;;11.40;99.90;;;;;;7370008;19;20817;-71
2024/01/23 11:13:42;;;;;;;27.80;7.18;;;11.10;99.90;;;;;;7373558;19;20074;-72
2024/01/23 11:16:09;;;;;;;28.38;6.43;;;10.90;99.90;;;;;;7365305;19;20014;-64
2024/01/23 11:18:36;;;;;;;23.42;5.20;;;10.70;99.90;;;;;;7367681;19;20038;-71
2024/01/23 11:21:08;;;;;;;21.33;5.30;;;10.80;99.90;;;;;;7368550;19;20018;-70
2024/01/23 11:23:45;;;;;;;19.42;5.22;;;10.40;99.90;;;;;;7370526;19;20090;-70
2024/01/23 11:26:22;;;;;;;26.90;6.47;;;10.10;99.90;;;;;;7369977;19;20018;-70
2024/01/23 11:28:53;;;;;;;23.73;6.50;;;10.00;99.90;;;;;;7365969;19;20025;-70
2024/01/23 11:31:22;;;;;;;26.50;5.47;;;9.70;99.90;;;;;;7370153;19;20019;-71
2024/01/23 11:33:52;;;;;;;24.27;5.75;;;9.70;99.90;;;;;;7364106;19;20018;-71
2024/01/23 11:36:23;;;;;;;23.85;5.97;;;9.50;99.90;;;;;;7371743;19;20527;-71
2024/01/23 11:38:58;;;;;;;29.00;6.55;;;9.40;99.90;;;;;;7364452;19;20078;-71
2024/01/23 11:41:27;;;;;;;30.75;5.28;;;9.50;99.90;;;;;;7371440;19;20063;-71
2024/01/23 11:43:55;;;;;;;29.50;6.60;;;9.30;99.90;;;;;;7368275;19;20029;-71
2024/01/23 11:46:25;;;;;;;27.15;5.57;;;9.20;99.90;;;;;;7368420;19;20527;-71
2024/01/23 11:48:53;;;;;;;30.47;6.20;;;9.10;99.90;;;;;;7367199;19;20022;-71
2024/01/23 11:51:20;;;;;;;32.45;6.45;;;9.00;99.90;;;;;;7369043;19;20019;-71
2024/01/23 11:53:47;;;;;;;25.30;5.78;;;8.90;99.90;;;;;;7367312;19;21353;-71
2024/01/23 11:56:15;;;;;;;29.52;5.78;;;9.00;99.90;;;;;;7369034;19;20078;-71
2024/01/23 11:58:42;;;;;;;24.77;5.75;;;8.90;99.90;;;;;;7367255;19;20124;-70
2024/01/23 12:01:12;;;;;;;28.75;6.07;;;8.90;99.90;;;;;;7368347;19;20028;-71
2024/01/23 12:03:48;;;;;;;23.40;7.00;;;9.10;99.90;;;;;;7371591;19;21058;-71
2024/01/23 12:06:16;;;;;;;25.60;5.93;;;9.00;99.90;;;;;;7367226;19;20019;-71
2024/01/23 12:08:46;;;;;;;33.33;6.78;;;9.10;99.90;;;;;;7366735;19;20745;-70
2024/01/23 12:11:18;;;;;;;27.02;6.43;;;9.40;99.90;;;;;;7367554;19;20018;-64
2024/01/23 12:13:49;;;;;;;22.30;6.38;;;9.40;99.90;;;;;;7368712;19;20366;-64
2024/01/23 12:16:17;;;;;;;23.20;5.85;;;9.90;99.90;;;;;;7370226;19;20018;-71
2024/01/23 12:18:53;;;;;;;27.92;5.55;;;10.10;99.90;;;;;;7367981;19;20023;-71
2024/01/23 12:21:21;;;;;;;27.70;6.55;;;9.90;99.90;;;;;;7368827;19;20582;-71
2024/01/23 12:23:49;;;;;;;30.17;5.72;;;10.40;99.90;;;;;;7369794;19;20014;-64
2024/01/23 12:26:17;;;;;;;27.00;5.82;;;10.20;99.90;;;;;;7371290;19;20018;-71
2024/01/23 12:28:46;;;;;;;24.20;5.68;;;10.50;99.90;;;;;;7364539;19;20018;-71
2024/01/23 12:31:17;;;;;;;28.40;5.57;;;11.10;99.90;;;;;;7367799;19;20074;-71
2024/01/23 12:33:44;;;;;;;22.63;5.40;;;11.20;99.90;;;;;;7365116;19;20074;-71
2024/01/23 12:36:16;;;;;;;23.75;5.93;;;11.40;99.90;;;;;;7366847;19;20777;-71
2024/01/23 12:38:43;;;;;;;25.48;5.80;;;11.90;99.90;;;;;;7366760;19;20019;-70
2024/01/23 12:41:09;;;;;;;26.40;6.13;;;11.90;99.90;;;;;;7367447;19;20015;-71
2024/01/23 12:43:35;;;;;;;25.92;6.53;;;12.00;99.90;;;;;;7371504;19;20801;-71
2024/01/23 12:46:02;;;;;;;24.38;5.22;;;11.90;99.90;;;;;;7364060;19;20025;-71